sensor_id;sensor_type;location;lat;lon;timestamp;temperature;humidity
14192;DHT22;7177;48.572;7.838;2024-03-22T00:00:54;11.90;99.90
14192;DHT22;7177;48.572;7.838;2024-03-22T00:03:19;11.80;99.90
14192;DHT22;7177;48.572;7.838;2024-03-22T00:05:45;11.70;99.90
14192;DHT22;7177;48.572;7.838;2024-03-22T00:08:11;11.70;99.90
14192;DHT22;7177;48.572;7.838;2024-03-22T00:10:36;11.70;99.90
14192;DHT22;7177;48.572;7.838;2024-03-22T00:13:02;11.70;99.90
14192;DHT22;7177;48.572;7.838;2024-03-22T00:15:27;11.70;99.90
14192;DHT22;7177;48.572;7.838;2024-03-22T00:17:53;11.60;99.90
14192;DHT22;7177;48.572;7.838;2024-03-22T00:20:18;11.70;99.90
14192;DHT22;7177;48.572;7.838;2024-03-22T00:22:44;11.70;99.90
14192;DHT22;7177;48.572;7.838;2024-03-22T00:25:09;11.60;99.90
14192;DHT22;7177;48.572;7.838;2024-03-22T00:27:35;11.60;99.90
14192;DHT22;7177;48.572;7.838;2024-03-22T00:30:00;11.60;99.90
14192;DHT22;7177;48.572;7.838;2024-03-22T00:32:26;11.60;99.90
14192;DHT22;7177;48.572;7.838;2024-03-22T00:34:52;11.50;99.90
14192;DHT22;7177;48.572;7.838;2024-03-22T00:37:17;11.50;99.90
14192;DHT22;7177;48.572;7.838;2024-03-22T00:39:43;11.40;99.90
14192;DHT22;7177;48.572;7.838;2024-03-22T00:42:09;11.30;99.90
14192;DHT22;7177;48.572;7.838;2024-03-22T00:44:35;11.30;99.90
14192;DHT22;7177;48.572;7.838;2024-03-22T00:47:01;11.20;99.90
14192;DHT22;7177;48.572;7.838;2024-03-22T00:49:28;11.20;99.90
14192;DHT22;7177;48.572;7.838;2024-03-22T00:51:54;11.10;99.90
14192;DHT22;7177;48.572;7.838;2024-03-22T00:54:21;11.10;99.90
14192;DHT22;7177;48.572;7.838;2024-03-22T00:56:47;11.10;99.90
14192;DHT22;7177;48.572;7.838;2024-03-22T00:59:12;11.10;99.90
14192;DHT22;7177;48.572;7.838;2024-03-22T01:01:38;11.10;99.90
14192;DHT22;7177;48.572;7.838;2024-03-22T01:04:04;11.00;99.90
14192;DHT22;7177;48.572;7.838;2024-03-22T01:06:29;10.90;99.90
14192;DHT22;7177;48.572;7.838;2024-03-22T01:08:55;10.90;99.90
14192;DHT22;7177;48.572;7.838;2024-03-22T01:11:20;10.90;99.90
14192;DHT22;7177;48.572;7.838;2024-03-22T01:13:46;11.00;99.90
14192;DHT22;7177;48.572;7.838;2024-03-22T01:16:12;11.00;99.90
14192;DHT22;7177;48.572;7.838;2024-03-22T01:18:37;11.00;99.90
14192;DHT22;7177;48.572;7.838;2024-03-22T01:21:03;11.00;99.90
14192;DHT22;7177;48.572;7.838;2024-03-22T01:23:30;11.00;99.90
14192;DHT22;7177;48.572;7.838;2024-03-22T01:25:55;11.10;99.90
14192;DHT22;7177;48.572;7.838;2024-03-22T01:28:21;11.00;99.90
14192;DHT22;7177;48.572;7.838;2024-03-22T01:30:47;11.00;99.90
14192;DHT22;7177;48.572;7.838;2024-03-22T01:33:12;11.00;99.90
14192;DHT22;7177;48.572;7.838;2024-03-22T01:35:38;10.90;99.90
14192;DHT22;7177;48.572;7.838;2024-03-22T01:38:03;10.90;99.90
14192;DHT22;7177;48.572;7.838;2024-03-22T01:40:29;10.90;99.90
14192;DHT22;7177;48.572;7.838;2024-03-22T01:42:57;10.90;99.90
14192;DHT22;7177;48.572;7.838;2024-03-22T01:45:25;10.90;99.90
14192;DHT22;7177;48.572;7.838;2024-03-22T01:47:54;10.90;99.90
14192;DHT22;7177;48.572;7.838;2024-03-22T01:50:23;11.00;99.90
14192;DHT22;7177;48.572;7.838;2024-03-22T01:52:49;10.90;99.90
14192;DHT22;7177;48.572;7.838;2024-03-22T01:55:16;10.90;99.90
14192;DHT22;7177;48.572;7.838;2024-03-22T01:57:42;10.90;99.90
14192;DHT22;7177;48.572;7.838;2024-03-22T02:00:08;10.80;99.90
14192;DHT22;7177;48.572;7.838;2024-03-22T02:02:35;10.80;99.90
14192;DHT22;7177;48.572;7.838;2024-03-22T02:05:14;10.80;99.90
14192;DHT22;7177;48.572;7.838;2024-03-22T02:07:41;10.90;99.90
14192;DHT22;7177;48.572;7.838;2024-03-22T02:10:08;10.90;99.90
14192;DHT22;7177;48.572;7.838;2024-03-22T02:12:36;11.00;99.90
14192;DHT22;7177;48.572;7.838;2024-03-22T02:15:02;11.00;99.90
14192;DHT22;7177;48.572;7.838;2024-03-22T02:17:28;11.00;99.90
14192;DHT22;7177;48.572;7.838;2024-03-22T02:19:53;11.00;99.90
14192;DHT22;7177;48.572;7.838;2024-03-22T02:22:19;11.00;99.90
14192;DHT22;7177;48.572;7.838;2024-03-22T02:24:44;11.00;99.90
14192;DHT22;7177;48.572;7.838;2024-03-22T02:27:10;11.00;99.90
14192;DHT22;7177;48.572;7.838;2024-03-22T02:29:35;11.00;99.90
14192;DHT22;7177;48.572;7.838;2024-03-22T02:32:01;11.00;99.90
14192;DHT22;7177;48.572;7.838;2024-03-22T02:34:26;11.00;99.90
14192;DHT22;7177;48.572;7.838;2024-03-22T02:36:52;11.00;99.90
14192;DHT22;7177;48.572;7.838;2024-03-22T02:39:17;11.00;99.90
14192;DHT22;7177;48.572;7.838;2024-03-22T02:41:43;11.00;99.90
14192;DHT22;7177;48.572;7.838;2024-03-22T02:44:08;11.00;99.90
14192;DHT22;7177;48.572;7.838;2024-03-22T02:46:34;11.00;99.90
14192;DHT22;7177;48.572;7.838;2024-03-22T02:48:59;11.00;99.90
14192;DHT22;7177;48.572;7.838;2024-03-22T02:51:25;11.00;99.90
14192;DHT22;7177;48.572;7.838;2024-03-22T02:53:51;11.00;99.90
14192;DHT22;7177;48.572;7.838;2024-03-22T02:56:16;11.00;99.90
14192;DHT22;7177;48.572;7.838;2024-03-22T02:58:42;11.00;99.90
14192;DHT22;7177;48.572;7.838;2024-03-22T03:01:07;11.10;99.90
14192;DHT22;7177;48.572;7.838;2024-03-22T03:03:33;11.00;99.90
14192;DHT22;7177;48.572;7.838;2024-03-22T03:05:58;11.00;99.90
14192;DHT22;7177;48.572;7.838;2024-03-22T03:08:24;11.00;99.90
14192;DHT22;7177;48.572;7.838;2024-03-22T03:10:50;11.10;99.90
14192;DHT22;7177;48.572;7.838;2024-03-22T03:13:16;11.00;99.90
14192;DHT22;7177;48.572;7.838;2024-03-22T03:15:41;11.00;99.90
14192;DHT22;7177;48.572;7.838;2024-03-22T03:18:07;11.00;99.90
14192;DHT22;7177;48.572;7.838;2024-03-22T03:20:32;11.00;99.90
14192;DHT22;7177;48.572;7.838;2024-03-22T03:22:58;11.00;99.90
14192;DHT22;7177;48.572;7.838;2024-03-22T03:25:25;11.00;99.90
14192;DHT22;7177;48.572;7.838;2024-03-22T03:27:51;11.00;99.90
14192;DHT22;7177;48.572;7.838;2024-03-22T03:30:17;10.90;99.90
14192;DHT22;7177;48.572;7.838;2024-03-22T03:32:42;10.90;99.90
14192;DHT22;7177;48.572;7.838;2024-03-22T03:35:08;10.90;99.90
14192;DHT22;7177;48.572;7.838;2024-03-22T03:37:34;10.90;99.90
14192;DHT22;7177;48.572;7.838;2024-03-22T03:39:59;10.90;99.90
14192;DHT22;7177;48.572;7.838;2024-03-22T03:42:24;10.90;99.90
14192;DHT22;7177;48.572;7.838;2024-03-22T03:44:50;10.80;99.90
14192;DHT22;7177;48.572;7.838;2024-03-22T03:47:16;10.80;99.90
14192;DHT22;7177;48.572;7.838;2024-03-22T03:49:41;10.80;99.90
14192;DHT22;7177;48.572;7.838;2024-03-22T03:52:07;10.80;99.90
14192;DHT22;7177;48.572;7.838;2024-03-22T03:54:32;10.80;99.90
14192;DHT22;7177;48.572;7.838;2024-03-22T03:56:58;10.80;99.90
14192;DHT22;7177;48.572;7.838;2024-03-22T03:59:23;10.80;99.90
14192;DHT22;7177;48.572;7.838;2024-03-22T04:01:49;10.80;99.90
14192;DHT22;7177;48.572;7.838;2024-03-22T04:04:15;10.70;99.90
14192;DHT22;7177;48.572;7.838;2024-03-22T04:06:40;10.70;99.90
14192;DHT22;7177;48.572;7.838;2024-03-22T04:09:06;10.70;99.90
14192;DHT22;7177;48.572;7.838;2024-03-22T04:11:32;10.70;99.90
14192;DHT22;7177;48.572;7.838;2024-03-22T04:13:57;10.80;99.90
14192;DHT22;7177;48.572;7.838;2024-03-22T04:16:23;10.80;99.90
14192;DHT22;7177;48.572;7.838;2024-03-22T04:18:48;10.80;99.90
14192;DHT22;7177;48.572;7.838;2024-03-22T04:21:14;10.80;99.90
14192;DHT22;7177;48.572;7.838;2024-03-22T04:23:40;10.80;99.90
14192;DHT22;7177;48.572;7.838;2024-03-22T04:26:05;10.80;99.90
14192;DHT22;7177;48.572;7.838;2024-03-22T04:28:31;10.80;99.90
14192;DHT22;7177;48.572;7.838;2024-03-22T04:31:07;10.80;99.90
14192;DHT22;7177;48.572;7.838;2024-03-22T04:33:34;10.70;99.90
14192;DHT22;7177;48.572;7.838;2024-03-22T04:36:00;10.70;99.90
14192;DHT22;7177;48.572;7.838;2024-03-22T04:38:27;10.70;99.90
14192;DHT22;7177;48.572;7.838;2024-03-22T04:40:53;10.60;99.90
14192;DHT22;7177;48.572;7.838;2024-03-22T04:43:19;10.70;99.90
14192;DHT22;7177;48.572;7.838;2024-03-22T04:45:45;10.60;99.90
14192;DHT22;7177;48.572;7.838;2024-03-22T04:48:13;10.60;99.90
14192;DHT22;7177;48.572;7.838;2024-03-22T04:50:40;10.60;99.90
14192;DHT22;7177;48.572;7.838;2024-03-22T04:53:06;10.60;99.90
14192;DHT22;7177;48.572;7.838;2024-03-22T04:55:32;10.60;99.90
14192;DHT22;7177;48.572;7.838;2024-03-22T04:58:00;10.60;99.90
14192;DHT22;7177;48.572;7.838;2024-03-22T05:00:27;10.60;99.90
14192;DHT22;7177;48.572;7.838;2024-03-22T05:02:53;7.60;99.90
14192;DHT22;7177;48.572;7.838;2024-03-22T05:05:19;10.60;99.90
14192;DHT22;7177;48.572;7.838;2024-03-22T05:07:44;10.60;99.90
14192;DHT22;7177;48.572;7.838;2024-03-22T05:10:10;10.60;99.90
14192;DHT22;7177;48.572;7.838;2024-03-22T05:12:36;10.60;99.90
14192;DHT22;7177;48.572;7.838;2024-03-22T05:15:06;10.60;99.90
14192;DHT22;7177;48.572;7.838;2024-03-22T05:17:31;10.60;99.90
14192;DHT22;7177;48.572;7.838;2024-03-22T05:19:58;10.60;99.90
14192;DHT22;7177;48.572;7.838;2024-03-22T05:22:24;10.60;99.90
14192;DHT22;7177;48.572;7.838;2024-03-22T05:24:49;10.60;99.90
14192;DHT22;7177;48.572;7.838;2024-03-22T05:27:15;10.90;99.90
14192;DHT22;7177;48.572;7.838;2024-03-22T05:29:40;11.20;99.90
14192;DHT22;7177;48.572;7.838;2024-03-22T05:32:06;11.40;99.90
14192;DHT22;7177;48.572;7.838;2024-03-22T05:34:31;11.80;99.90
14192;DHT22;7177;48.572;7.838;2024-03-22T05:36:57;12.00;99.90
14192;DHT22;7177;48.572;7.838;2024-03-22T05:39:22;12.00;99.90
14192;DHT22;7177;48.572;7.838;2024-03-22T05:41:48;12.00;99.90
14192;DHT22;7177;48.572;7.838;2024-03-22T05:44:13;12.00;99.90
14192;DHT22;7177;48.572;7.838;2024-03-22T05:46:39;12.10;99.90
14192;DHT22;7177;48.572;7.838;2024-03-22T05:49:04;12.20;99.90
14192;DHT22;7177;48.572;7.838;2024-03-22T05:51:30;12.20;99.90
14192;DHT22;7177;48.572;7.838;2024-03-22T05:53:56;12.20;99.90
14192;DHT22;7177;48.572;7.838;2024-03-22T05:56:22;12.40;99.90
14192;DHT22;7177;48.572;7.838;2024-03-22T05:58:47;12.60;99.90
14192;DHT22;7177;48.572;7.838;2024-03-22T06:01:13;12.50;99.90
14192;DHT22;7177;48.572;7.838;2024-03-22T06:03:38;12.30;99.90
14192;DHT22;7177;48.572;7.838;2024-03-22T06:06:04;12.00;99.90
14192;DHT22;7177;48.572;7.838;2024-03-22T06:08:29;11.90;99.90
14192;DHT22;7177;48.572;7.838;2024-03-22T06:10:57;11.80;99.90
14192;DHT22;7177;48.572;7.838;2024-03-22T06:13:22;11.90;99.90
14192;DHT22;7177;48.572;7.838;2024-03-22T06:15:49;12.00;99.90
14192;DHT22;7177;48.572;7.838;2024-03-22T06:18:14;12.00;99.90
14192;DHT22;7177;48.572;7.838;2024-03-22T06:20:40;12.00;99.90
14192;DHT22;7177;48.572;7.838;2024-03-22T06:23:07;12.00;99.90
14192;DHT22;7177;48.572;7.838;2024-03-22T06:25:33;12.00;99.90
14192;DHT22;7177;48.572;7.838;2024-03-22T06:27:58;12.00;99.90
14192;DHT22;7177;48.572;7.838;2024-03-22T06:30:24;12.00;99.90
14192;DHT22;7177;48.572;7.838;2024-03-22T06:32:49;12.00;99.90
14192;DHT22;7177;48.572;7.838;2024-03-22T06:35:15;12.00;99.90
14192;DHT22;7177;48.572;7.838;2024-03-22T06:37:40;11.90;99.90
14192;DHT22;7177;48.572;7.838;2024-03-22T06:40:07;11.80;99.90
14192;DHT22;7177;48.572;7.838;2024-03-22T06:42:33;11.70;99.90
14192;DHT22;7177;48.572;7.838;2024-03-22T06:44:58;11.70;99.90
14192;DHT22;7177;48.572;7.838;2024-03-22T06:47:23;11.70;99.90
14192;DHT22;7177;48.572;7.838;2024-03-22T06:49:49;11.70;99.90
14192;DHT22;7177;48.572;7.838;2024-03-22T06:52:14;11.70;99.90
14192;DHT22;7177;48.572;7.838;2024-03-22T06:54:40;11.70;99.90
14192;DHT22;7177;48.572;7.838;2024-03-22T06:57:06;11.80;99.90
14192;DHT22;7177;48.572;7.838;2024-03-22T06:59:32;12.00;99.90
14192;DHT22;7177;48.572;7.838;2024-03-22T07:01:57;12.10;99.90
14192;DHT22;7177;48.572;7.838;2024-03-22T07:04:23;12.30;99.90
14192;DHT22;7177;48.572;7.838;2024-03-22T07:06:48;12.50;99.90
14192;DHT22;7177;48.572;7.838;2024-03-22T07:09:14;12.70;99.90
14192;DHT22;7177;48.572;7.838;2024-03-22T07:11:39;12.80;99.90
14192;DHT22;7177;48.572;7.838;2024-03-22T07:14:05;12.80;99.90
14192;DHT22;7177;48.572;7.838;2024-03-22T07:16:30;12.90;99.90
14192;DHT22;7177;48.572;7.838;2024-03-22T07:18:56;12.90;99.90
14192;DHT22;7177;48.572;7.838;2024-03-22T07:21:22;13.00;99.90
14192;DHT22;7177;48.572;7.838;2024-03-22T07:23:47;13.10;99.90
14192;DHT22;7177;48.572;7.838;2024-03-22T07:26:13;13.20;99.90
14192;DHT22;7177;48.572;7.838;2024-03-22T07:28:38;13.40;99.90
14192;DHT22;7177;48.572;7.838;2024-03-22T07:31:04;13.60;99.90
14192;DHT22;7177;48.572;7.838;2024-03-22T07:33:31;14.00;99.90
14192;DHT22;7177;48.572;7.838;2024-03-22T07:36:01;14.40;99.90
14192;DHT22;7177;48.572;7.838;2024-03-22T07:38:26;14.70;99.90
14192;DHT22;7177;48.572;7.838;2024-03-22T07:40:52;15.00;99.90
14192;DHT22;7177;48.572;7.838;2024-03-22T07:43:18;15.20;99.90
14192;DHT22;7177;48.572;7.838;2024-03-22T07:45:44;15.50;99.90
14192;DHT22;7177;48.572;7.838;2024-03-22T07:48:09;15.60;99.90
14192;DHT22;7177;48.572;7.838;2024-03-22T07:50:35;15.70;99.90
14192;DHT22;7177;48.572;7.838;2024-03-22T07:53:01;15.90;99.90
14192;DHT22;7177;48.572;7.838;2024-03-22T07:55:26;15.90;99.90
14192;DHT22;7177;48.572;7.838;2024-03-22T07:57:52;15.90;99.90
14192;DHT22;7177;48.572;7.838;2024-03-22T08:00:18;15.90;99.90
14192;DHT22;7177;48.572;7.838;2024-03-22T08:02:43;15.90;99.90
14192;DHT22;7177;48.572;7.838;2024-03-22T08:05:09;16.00;99.90
14192;DHT22;7177;48.572;7.838;2024-03-22T08:07:34;16.30;99.90
14192;DHT22;7177;48.572;7.838;2024-03-22T08:10:00;16.50;99.90
14192;DHT22;7177;48.572;7.838;2024-03-22T08:12:27;16.70;99.90
14192;DHT22;7177;48.572;7.838;2024-03-22T08:14:53;16.80;99.90
14192;DHT22;7177;48.572;7.838;2024-03-22T08:17:19;17.00;99.90
14192;DHT22;7177;48.572;7.838;2024-03-22T08:19:44;17.10;99.90
14192;DHT22;7177;48.572;7.838;2024-03-22T08:22:10;17.20;99.90
14192;DHT22;7177;48.572;7.838;2024-03-22T08:24:36;17.30;99.90
14192;DHT22;7177;48.572;7.838;2024-03-22T08:27:03;17.40;99.90
14192;DHT22;7177;48.572;7.838;2024-03-22T08:29:28;17.50;99.90
14192;DHT22;7177;48.572;7.838;2024-03-22T08:31:54;17.50;99.90
14192;DHT22;7177;48.572;7.838;2024-03-22T08:34:21;17.80;99.90
14192;DHT22;7177;48.572;7.838;2024-03-22T08:36:47;18.00;99.90
14192;DHT22;7177;48.572;7.838;2024-03-22T08:39:12;18.10;99.90
14192;DHT22;7177;48.572;7.838;2024-03-22T08:41:38;18.20;99.90
14192;DHT22;7177;48.572;7.838;2024-03-22T08:44:04;18.10;99.90
14192;DHT22;7177;48.572;7.838;2024-03-22T08:46:30;17.90;99.90
14192;DHT22;7177;48.572;7.838;2024-03-22T08:48:57;18.20;99.90
14192;DHT22;7177;48.572;7.838;2024-03-22T08:51:22;18.10;99.90
14192;DHT22;7177;48.572;7.838;2024-03-22T08:53:48;17.90;99.90
14192;DHT22;7177;48.572;7.838;2024-03-22T08:56:13;17.60;99.90
14192;DHT22;7177;48.572;7.838;2024-03-22T08:58:39;17.40;99.90
14192;DHT22;7177;48.572;7.838;2024-03-22T09:01:05;17.30;99.90
14192;DHT22;7177;48.572;7.838;2024-03-22T09:03:31;17.50;99.90
14192;DHT22;7177;48.572;7.838;2024-03-22T09:05:57;17.70;99.90
14192;DHT22;7177;48.572;7.838;2024-03-22T09:08:23;18.00;99.90
14192;DHT22;7177;48.572;7.838;2024-03-22T09:10:48;18.00;99.90
14192;DHT22;7177;48.572;7.838;2024-03-22T09:13:14;18.00;99.90
14192;DHT22;7177;48.572;7.838;2024-03-22T09:15:40;18.00;99.90
14192;DHT22;7177;48.572;7.838;2024-03-22T09:18:05;18.30;99.90
14192;DHT22;7177;48.572;7.838;2024-03-22T09:20:31;18.70;99.90
14192;DHT22;7177;48.572;7.838;2024-03-22T09:22:57;19.00;99.90
14192;DHT22;7177;48.572;7.838;2024-03-22T09:25:23;19.30;99.90
14192;DHT22;7177;48.572;7.838;2024-03-22T09:27:50;19.60;99.90
14192;DHT22;7177;48.572;7.838;2024-03-22T09:30:15;19.60;99.90
14192;DHT22;7177;48.572;7.838;2024-03-22T09:32:41;19.50;99.90
14192;DHT22;7177;48.572;7.838;2024-03-22T09:35:08;19.30;99.90
14192;DHT22;7177;48.572;7.838;2024-03-22T09:37:34;19.00;99.90
14192;DHT22;7177;48.572;7.838;2024-03-22T09:39:59;19.20;99.90
14192;DHT22;7177;48.572;7.838;2024-03-22T09:42:25;19.40;99.90
14192;DHT22;7177;48.572;7.838;2024-03-22T09:44:51;19.70;99.90
14192;DHT22;7177;48.572;7.838;2024-03-22T09:47:18;19.90;99.90
14192;DHT22;7177;48.572;7.838;2024-03-22T09:49:44;19.90;99.90
14192;DHT22;7177;48.572;7.838;2024-03-22T09:52:13;20.10;99.90
14192;DHT22;7177;48.572;7.838;2024-03-22T09:54:39;20.10;99.90
14192;DHT22;7177;48.572;7.838;2024-03-22T09:57:11;19.80;99.90
14192;DHT22;7177;48.572;7.838;2024-03-22T09:59:38;19.80;99.90
14192;DHT22;7177;48.572;7.838;2024-03-22T10:02:04;19.70;99.90
14192;DHT22;7177;48.572;7.838;2024-03-22T10:04:30;19.50;99.90
14192;DHT22;7177;48.572;7.838;2024-03-22T10:06:56;19.40;99.90
14192;DHT22;7177;48.572;7.838;2024-03-22T10:09:28;19.40;99.90
14192;DHT22;7177;48.572;7.838;2024-03-22T10:11:55;19.20;99.90
14192;DHT22;7177;48.572;7.838;2024-03-22T10:14:21;19.30;99.90
14192;DHT22;7177;48.572;7.838;2024-03-22T10:16:47;19.40;99.90
14192;DHT22;7177;48.572;7.838;2024-03-22T10:19:12;19.70;99.90
14192;DHT22;7177;48.572;7.838;2024-03-22T10:21:38;19.70;99.90
14192;DHT22;7177;48.572;7.838;2024-03-22T10:24:03;19.80;99.90
14192;DHT22;7177;48.572;7.838;2024-03-22T10:26:29;20.00;99.90
14192;DHT22;7177;48.572;7.838;2024-03-22T10:28:57;19.90;99.90
14192;DHT22;7177;48.572;7.838;2024-03-22T10:31:23;19.80;99.90
14192;DHT22;7177;48.572;7.838;2024-03-22T10:33:49;19.50;99.90
14192;DHT22;7177;48.572;7.838;2024-03-22T10:36:16;19.50;99.90
14192;DHT22;7177;48.572;7.838;2024-03-22T10:38:42;19.80;99.90
14192;DHT22;7177;48.572;7.838;2024-03-22T10:41:08;20.00;99.90
14192;DHT22;7177;48.572;7.838;2024-03-22T10:43:35;20.30;99.90
14192;DHT22;7177;48.572;7.838;2024-03-22T10:46:02;20.90;99.90
14192;DHT22;7177;48.572;7.838;2024-03-22T10:48:30;21.50;99.90
14192;DHT22;7177;48.572;7.838;2024-03-22T10:50:59;22.50;98.10
14192;DHT22;7177;48.572;7.838;2024-03-22T10:53:26;23.00;95.40
14192;DHT22;7177;48.572;7.838;2024-03-22T10:55:53;23.40;93.20
14192;DHT22;7177;48.572;7.838;2024-03-22T10:58:23;23.40;90.80
14192;DHT22;7177;48.572;7.838;2024-03-22T11:00:53;23.30;88.60
14192;DHT22;7177;48.572;7.838;2024-03-22T11:03:21;23.10;87.00
14192;DHT22;7177;48.572;7.838;2024-03-22T11:05:53;22.80;88.90
14192;DHT22;7177;48.572;7.838;2024-03-22T11:08:30;22.70;87.90
14192;DHT22;7177;48.572;7.838;2024-03-22T11:11:09;22.50;90.90
14192;DHT22;7177;48.572;7.838;2024-03-22T11:13:39;22.20;91.40
14192;DHT22;7177;48.572;7.838;2024-03-22T11:16:05;22.10;91.70
14192;DHT22;7177;48.572;7.838;2024-03-22T11:18:30;21.70;91.80
14192;DHT22;7177;48.572;7.838;2024-03-22T11:20:56;21.30;92.30
14192;DHT22;7177;48.572;7.838;2024-03-22T11:23:22;20.90;93.70
14192;DHT22;7177;48.572;7.838;2024-03-22T11:25:48;21.00;92.30
14192;DHT22;7177;48.572;7.838;2024-03-22T11:28:13;20.90;91.80
14192;DHT22;7177;48.572;7.838;2024-03-22T11:30:40;20.90;92.80
14192;DHT22;7177;48.572;7.838;2024-03-22T11:33:05;20.90;93.80
14192;DHT22;7177;48.572;7.838;2024-03-22T11:35:31;21.00;94.30
14192;DHT22;7177;48.572;7.838;2024-03-22T11:37:57;21.20;92.60
14192;DHT22;7177;48.572;7.838;2024-03-22T11:40:25;21.10;92.50
14192;DHT22;7177;48.572;7.838;2024-03-22T11:42:52;21.10;92.70
14192;DHT22;7177;48.572;7.838;2024-03-22T11:45:19;20.90;93.40
14192;DHT22;7177;48.572;7.838;2024-03-22T11:47:48;20.60;93.60
14192;DHT22;7177;48.572;7.838;2024-03-22T11:50:15;20.30;95.40
14192;DHT22;7177;48.572;7.838;2024-03-22T11:52:41;20.10;95.80
14192;DHT22;7177;48.572;7.838;2024-03-22T11:55:07;19.90;96.00
14192;DHT22;7177;48.572;7.838;2024-03-22T11:57:33;20.00;95.60
14192;DHT22;7177;48.572;7.838;2024-03-22T11:59:59;20.10;96.20
14192;DHT22;7177;48.572;7.838;2024-03-22T12:02:25;20.20;95.50
14192;DHT22;7177;48.572;7.838;2024-03-22T12:04:51;20.00;96.20
14192;DHT22;7177;48.572;7.838;2024-03-22T12:07:17;19.80;96.90
14192;DHT22;7177;48.572;7.838;2024-03-22T12:09:43;19.60;97.10
14192;DHT22;7177;48.572;7.838;2024-03-22T12:12:11;19.60;98.90
14192;DHT22;7177;48.572;7.838;2024-03-22T12:14:37;19.50;96.60
14192;DHT22;7177;48.572;7.838;2024-03-22T12:17:03;19.40;96.90
14192;DHT22;7177;48.572;7.838;2024-03-22T12:19:29;19.40;96.90
14192;DHT22;7177;48.572;7.838;2024-03-22T12:21:54;19.30;96.20
14192;DHT22;7177;48.572;7.838;2024-03-22T12:24:21;19.30;96.30
14192;DHT22;7177;48.572;7.838;2024-03-22T12:26:46;19.30;97.50
14192;DHT22;7177;48.572;7.838;2024-03-22T12:29:12;19.40;97.30
14192;DHT22;7177;48.572;7.838;2024-03-22T12:31:38;19.40;97.30
14192;DHT22;7177;48.572;7.838;2024-03-22T12:34:04;19.60;96.60
14192;DHT22;7177;48.572;7.838;2024-03-22T12:36:30;19.70;96.70
14192;DHT22;7177;48.572;7.838;2024-03-22T12:38:55;19.80;95.90
14192;DHT22;7177;48.572;7.838;2024-03-22T12:41:21;19.80;95.00
14192;DHT22;7177;48.572;7.838;2024-03-22T12:43:46;19.70;94.70
14192;DHT22;7177;48.572;7.838;2024-03-22T12:46:12;19.70;95.80
14192;DHT22;7177;48.572;7.838;2024-03-22T12:48:37;19.80;95.80
14192;DHT22;7177;48.572;7.838;2024-03-22T12:51:03;19.80;95.20
14192;DHT22;7177;48.572;7.838;2024-03-22T12:53:29;19.80;95.80
14192;DHT22;7177;48.572;7.838;2024-03-22T12:55:54;19.80;95.70
14192;DHT22;7177;48.572;7.838;2024-03-22T12:58:20;19.60;96.30
14192;DHT22;7177;48.572;7.838;2024-03-22T13:00:46;19.50;96.60
14192;DHT22;7177;48.572;7.838;2024-03-22T13:03:12;19.40;96.50
14192;DHT22;7177;48.572;7.838;2024-03-22T13:05:40;19.30;97.60
14192;DHT22;7177;48.572;7.838;2024-03-22T13:08:05;19.30;97.10
14192;DHT22;7177;48.572;7.838;2024-03-22T13:10:31;19.30;97.30
14192;DHT22;7177;48.572;7.838;2024-03-22T13:12:57;19.30;97.50
14192;DHT22;7177;48.572;7.838;2024-03-22T13:15:23;19.40;99.20
14192;DHT22;7177;48.572;7.838;2024-03-22T13:17:48;19.40;98.60
14192;DHT22;7177;48.572;7.838;2024-03-22T13:20:14;19.40;98.50
14192;DHT22;7177;48.572;7.838;2024-03-22T13:22:43;19.40;98.50
14192;DHT22;7177;48.572;7.838;2024-03-22T13:25:09;19.30;99.00
14192;DHT22;7177;48.572;7.838;2024-03-22T13:27:36;19.30;98.00
14192;DHT22;7177;48.572;7.838;2024-03-22T13:30:04;19.20;97.70
14192;DHT22;7177;48.572;7.838;2024-03-22T13:32:30;19.20;98.60
14192;DHT22;7177;48.572;7.838;2024-03-22T13:34:56;19.30;98.70
14192;DHT22;7177;48.572;7.838;2024-03-22T13:37:22;19.30;97.90
14192;DHT22;7177;48.572;7.838;2024-03-22T13:39:50;19.30;97.30
14192;DHT22;7177;48.572;7.838;2024-03-22T13:42:16;19.30;96.80
14192;DHT22;7177;48.572;7.838;2024-03-22T13:44:42;19.30;97.40
14192;DHT22;7177;48.572;7.838;2024-03-22T13:47:08;19.30;98.20
14192;DHT22;7177;48.572;7.838;2024-03-22T13:49:34;19.30;97.30
14192;DHT22;7177;48.572;7.838;2024-03-22T13:51:59;19.40;96.90
14192;DHT22;7177;48.572;7.838;2024-03-22T13:54:25;19.40;96.80
14192;DHT22;7177;48.572;7.838;2024-03-22T13:56:50;19.50;95.80
14192;DHT22;7177;48.572;7.838;2024-03-22T13:59:16;19.50;96.30
14192;DHT22;7177;48.572;7.838;2024-03-22T14:01:42;19.50;96.90
14192;DHT22;7177;48.572;7.838;2024-03-22T14:04:11;19.40;96.20
14192;DHT22;7177;48.572;7.838;2024-03-22T14:06:37;19.40;96.70
14192;DHT22;7177;48.572;7.838;2024-03-22T14:09:03;19.40;95.90
14192;DHT22;7177;48.572;7.838;2024-03-22T14:11:30;19.50;96.10
14192;DHT22;7177;48.572;7.838;2024-03-22T14:13:59;19.50;95.30
14192;DHT22;7177;48.572;7.838;2024-03-22T14:16:25;19.60;94.20
14192;DHT22;7177;48.572;7.838;2024-03-22T14:18:51;19.60;94.10
14192;DHT22;7177;48.572;7.838;2024-03-22T14:21:17;19.60;93.90
14192;DHT22;7177;48.572;7.838;2024-03-22T14:23:47;19.50;94.70
14192;DHT22;7177;48.572;7.838;2024-03-22T14:26:12;19.50;94.20
14192;DHT22;7177;48.572;7.838;2024-03-22T14:28:38;19.50;94.40
14192;DHT22;7177;48.572;7.838;2024-03-22T14:31:08;19.50;94.10
14192;DHT22;7177;48.572;7.838;2024-03-22T14:33:35;19.40;94.30
14192;DHT22;7177;48.572;7.838;2024-03-22T14:36:02;19.40;94.40
14192;DHT22;7177;48.572;7.838;2024-03-22T14:38:28;19.40;95.90
14192;DHT22;7177;48.572;7.838;2024-03-22T14:40:54;19.50;95.60
14192;DHT22;7177;48.572;7.838;2024-03-22T14:43:20;19.50;95.50
14192;DHT22;7177;48.572;7.838;2024-03-22T14:45:46;19.60;95.30
14192;DHT22;7177;48.572;7.838;2024-03-22T14:48:11;19.70;95.20
14192;DHT22;7177;48.572;7.838;2024-03-22T14:50:37;19.80;94.20
14192;DHT22;7177;48.572;7.838;2024-03-22T14:53:04;19.80;93.10
14192;DHT22;7177;48.572;7.838;2024-03-22T14:55:29;19.80;94.00
14192;DHT22;7177;48.572;7.838;2024-03-22T14:57:55;19.90;94.60
14192;DHT22;7177;48.572;7.838;2024-03-22T15:00:20;19.90;94.30
14192;DHT22;7177;48.572;7.838;2024-03-22T15:02:46;20.00;93.40
14192;DHT22;7177;48.572;7.838;2024-03-22T15:05:13;20.00;93.90
14192;DHT22;7177;48.572;7.838;2024-03-22T15:07:38;20.10;94.30
14192;DHT22;7177;48.572;7.838;2024-03-22T15:10:04;20.20;94.50
14192;DHT22;7177;48.572;7.838;2024-03-22T15:12:30;20.20;95.70
14192;DHT22;7177;48.572;7.838;2024-03-22T15:14:56;20.30;96.30
14192;DHT22;7177;48.572;7.838;2024-03-22T15:17:21;20.10;95.00
14192;DHT22;7177;48.572;7.838;2024-03-22T15:19:49;20.00;95.20
14192;DHT22;7177;48.572;7.838;2024-03-22T15:22:15;19.90;95.00
14192;DHT22;7177;48.572;7.838;2024-03-22T15:24:47;19.80;96.10
14192;DHT22;7177;48.572;7.838;2024-03-22T15:27:13;19.70;94.00
14192;DHT22;7177;48.572;7.838;2024-03-22T15:29:39;19.70;94.90
14192;DHT22;7177;48.572;7.838;2024-03-22T15:32:05;19.70;95.40
14192;DHT22;7177;48.572;7.838;2024-03-22T15:34:30;19.60;93.90
14192;DHT22;7177;48.572;7.838;2024-03-22T15:36:56;19.60;93.90